sensor_id;sensor_type;location;lat;lon;timestamp;P1;durP1;ratioP1;P2;durP2;ratioP2
77324;SDS011;66387;53.440;10.390;2023-02-11T00:01:41;43.80;;;20.83;;
77324;SDS011;66387;53.440;10.390;2023-02-11T00:04:06;40.23;;;20.57;;
77324;SDS011;66387;53.440;10.390;2023-02-11T00:06:32;38.40;;;20.65;;
77324;SDS011;66387;53.440;10.390;2023-02-11T00:08:58;40.40;;;20.52;;
77324;SDS011;66387;53.440;10.390;2023-02-11T00:11:24;38.50;;;21.33;;
77324;SDS011;66387;53.440;10.390;2023-02-11T00:13:54;41.58;;;22.40;;
77324;SDS011;66387;53.440;10.390;2023-02-11T00:16:21;35.50;;;20.85;;
77324;SDS011;66387;53.440;10.390;2023-02-11T00:18:47;42.50;;;20.10;;
77324;SDS011;66387;53.440;10.390;2023-02-11T00:21:13;40.97;;;21.88;;
77324;SDS011;66387;53.440;10.390;2023-02-11T00:23:40;36.20;;;20.10;;
77324;SDS011;66387;53.440;10.390;2023-02-11T00:26:19;37.03;;;20.80;;
77324;SDS011;66387;53.440;10.390;2023-02-11T00:28:49;36.65;;;19.52;;
77324;SDS011;66387;53.440;10.390;2023-02-11T00:31:16;41.47;;;22.42;;
77324;SDS011;66387;53.440;10.390;2023-02-11T00:33:42;39.00;;;20.80;;
77324;SDS011;66387;53.440;10.390;2023-02-11T00:36:09;40.72;;;23.23;;
77324;SDS011;66387;53.440;10.390;2023-02-11T00:38:37;42.13;;;20.23;;
77324;SDS011;66387;53.440;10.390;2023-02-11T00:41:02;38.03;;;21.90;;
77324;SDS011;66387;53.440;10.390;2023-02-11T00:43:28;42.22;;;23.75;;
77324;SDS011;66387;53.440;10.390;2023-02-11T00:45:53;46.40;;;23.47;;
77324;SDS011;66387;53.440;10.390;2023-02-11T00:48:18;39.80;;;24.33;;
77324;SDS011;66387;53.440;10.390;2023-02-11T00:50:43;44.73;;;24.00;;
77324;SDS011;66387;53.440;10.390;2023-02-11T00:53:09;42.10;;;23.87;;
77324;SDS011;66387;53.440;10.390;2023-02-11T00:55:34;40.97;;;23.02;;
77324;SDS011;66387;53.440;10.390;2023-02-11T00:58:00;45.03;;;26.47;;
77324;SDS011;66387;53.440;10.390;2023-02-11T01:00:25;42.50;;;24.17;;
77324;SDS011;66387;53.440;10.390;2023-02-11T01:02:51;49.53;;;25.27;;
77324;SDS011;66387;53.440;10.390;2023-02-11T01:05:17;40.00;;;21.75;;
77324;SDS011;66387;53.440;10.390;2023-02-11T01:07:42;46.88;;;24.70;;
77324;SDS011;66387;53.440;10.390;2023-02-11T01:10:08;38.30;;;22.40;;
77324;SDS011;66387;53.440;10.390;2023-02-11T01:12:34;40.33;;;25.15;;
77324;SDS011;66387;53.440;10.390;2023-02-11T01:14:59;40.78;;;25.60;;
77324;SDS011;66387;53.440;10.390;2023-02-11T01:17:25;53.93;;;27.73;;
77324;SDS011;66387;53.440;10.390;2023-02-11T01:19:50;45.43;;;25.90;;
77324;SDS011;66387;53.440;10.390;2023-02-11T01:22:15;47.23;;;24.63;;
77324;SDS011;66387;53.440;10.390;2023-02-11T01:24:40;47.60;;;26.37;;
77324;SDS011;66387;53.440;10.390;2023-02-11T01:27:06;42.90;;;23.47;;
77324;SDS011;66387;53.440;10.390;2023-02-11T01:29:31;50.33;;;25.58;;
77324;SDS011;66387;53.440;10.390;2023-02-11T01:31:56;47.87;;;29.23;;
77324;SDS011;66387;53.440;10.390;2023-02-11T01:34:21;46.70;;;27.13;;
77324;SDS011;66387;53.440;10.390;2023-02-11T01:36:47;48.83;;;27.53;;
77324;SDS011;66387;53.440;10.390;2023-02-11T01:39:12;42.83;;;24.33;;
77324;SDS011;66387;53.440;10.390;2023-02-11T01:41:37;47.43;;;23.83;;
77324;SDS011;66387;53.440;10.390;2023-02-11T01:46:48;53.53;;;26.40;;
77324;SDS011;66387;53.440;10.390;2023-02-11T01:49:15;53.60;;;27.10;;
77324;SDS011;66387;53.440;10.390;2023-02-11T01:54:32;57.95;;;28.85;;
77324;SDS011;66387;53.440;10.390;2023-02-11T01:57:18;48.85;;;25.27;;
77324;SDS011;66387;53.440;10.390;2023-02-11T02:05:16;50.45;;;26.45;;
77324;SDS011;66387;53.440;10.390;2023-02-11T02:10:27;45.83;;;23.25;;
77324;SDS011;66387;53.440;10.390;2023-02-11T02:12:53;48.53;;;27.63;;
77324;SDS011;66387;53.440;10.390;2023-02-11T02:15:28;50.97;;;26.55;;
77324;SDS011;66387;53.440;10.390;2023-02-11T02:17:58;50.30;;;26.75;;
77324;SDS011;66387;53.440;10.390;2023-02-11T02:20:44;51.63;;;26.50;;
77324;SDS011;66387;53.440;10.390;2023-02-11T02:34:49;47.72;;;25.02;;
77324;SDS011;66387;53.440;10.390;2023-02-11T02:37:20;45.60;;;23.60;;
77324;SDS011;66387;53.440;10.390;2023-02-11T02:39:54;46.78;;;24.13;;
77324;SDS011;66387;53.440;10.390;2023-02-11T02:42:23;46.25;;;24.08;;
77324;SDS011;66387;53.440;10.390;2023-02-11T02:44:49;41.67;;;22.45;;
77324;SDS011;66387;53.440;10.390;2023-02-11T02:47:16;41.95;;;24.65;;
77324;SDS011;66387;53.440;10.390;2023-02-11T02:49:41;44.10;;;25.05;;
77324;SDS011;66387;53.440;10.390;2023-02-11T02:54:56;44.65;;;24.05;;
77324;SDS011;66387;53.440;10.390;2023-02-11T03:08:01;39.22;;;19.45;;
77324;SDS011;66387;53.440;10.390;2023-02-11T03:10:34;46.40;;;22.58;;
77324;SDS011;66387;53.440;10.390;2023-02-11T03:13:02;44.60;;;20.83;;
77324;SDS011;66387;53.440;10.390;2023-02-11T03:15:30;36.33;;;19.27;;
77324;SDS011;66387;53.440;10.390;2023-02-11T03:17:59;38.88;;;21.40;;
77324;SDS011;66387;53.440;10.390;2023-02-11T03:22:54;40.08;;;20.15;;
77324;SDS011;66387;53.440;10.390;2023-02-11T03:25:29;39.58;;;19.48;;
77324;SDS011;66387;53.440;10.390;2023-02-11T03:31:00;40.85;;;22.02;;
77324;SDS011;66387;53.440;10.390;2023-02-11T03:33:54;40.40;;;19.17;;
77324;SDS011;66387;53.440;10.390;2023-02-11T03:36:27;40.13;;;20.60;;
77324;SDS011;66387;53.440;10.390;2023-02-11T03:38:59;40.15;;;22.33;;
77324;SDS011;66387;53.440;10.390;2023-02-11T03:41:28;43.38;;;21.52;;
77324;SDS011;66387;53.440;10.390;2023-02-11T03:43:55;48.55;;;21.13;;
77324;SDS011;66387;53.440;10.390;2023-02-11T03:46:24;36.00;;;20.95;;
77324;SDS011;66387;53.440;10.390;2023-02-11T03:48:55;42.00;;;20.17;;
77324;SDS011;66387;53.440;10.390;2023-02-11T03:51:25;41.80;;;21.85;;
77324;SDS011;66387;53.440;10.390;2023-02-11T03:53:54;37.83;;;20.33;;
77324;SDS011;66387;53.440;10.390;2023-02-11T03:56:22;36.90;;;19.80;;
77324;SDS011;66387;53.440;10.390;2023-02-11T03:58:53;47.47;;;21.73;;
77324;SDS011;66387;53.440;10.390;2023-02-11T04:01:18;39.47;;;21.23;;
77324;SDS011;66387;53.440;10.390;2023-02-11T04:03:43;33.43;;;19.70;;
77324;SDS011;66387;53.440;10.390;2023-02-11T04:06:09;38.63;;;20.10;;
77324;SDS011;66387;53.440;10.390;2023-02-11T04:08:34;35.90;;;19.67;;
77324;SDS011;66387;53.440;10.390;2023-02-11T04:11:00;39.53;;;19.70;;
77324;SDS011;66387;53.440;10.390;2023-02-11T04:13:25;33.47;;;19.23;;
77324;SDS011;66387;53.440;10.390;2023-02-11T04:15:50;33.67;;;18.40;;
77324;SDS011;66387;53.440;10.390;2023-02-11T04:18:15;34.63;;;20.13;;
77324;SDS011;66387;53.440;10.390;2023-02-11T04:20:41;31.00;;;19.37;;
77324;SDS011;66387;53.440;10.390;2023-02-11T04:23:06;38.78;;;20.65;;
77324;SDS011;66387;53.440;10.390;2023-02-11T04:25:31;31.23;;;17.07;;
77324;SDS011;66387;53.440;10.390;2023-02-11T04:27:57;44.40;;;18.30;;
77324;SDS011;66387;53.440;10.390;2023-02-11T04:30:22;40.03;;;18.30;;
77324;SDS011;66387;53.440;10.390;2023-02-11T04:32:47;31.17;;;18.33;;
77324;SDS011;66387;53.440;10.390;2023-02-11T04:35:12;32.37;;;18.17;;
77324;SDS011;66387;53.440;10.390;2023-02-11T04:37:38;35.35;;;18.05;;
77324;SDS011;66387;53.440;10.390;2023-02-11T04:40:03;28.50;;;15.53;;
77324;SDS011;66387;53.440;10.390;2023-02-11T04:42:29;27.58;;;15.70;;
77324;SDS011;66387;53.440;10.390;2023-02-11T04:44:54;28.17;;;16.60;;
77324;SDS011;66387;53.440;10.390;2023-02-11T04:47:19;33.93;;;17.50;;
77324;SDS011;66387;53.440;10.390;2023-02-11T04:49:45;24.80;;;14.47;;
77324;SDS011;66387;53.440;10.390;2023-02-11T04:52:10;32.53;;;16.13;;
77324;SDS011;66387;53.440;10.390;2023-02-11T04:54:35;32.05;;;14.68;;
77324;SDS011;66387;53.440;10.390;2023-02-11T04:57:01;24.33;;;15.30;;
77324;SDS011;66387;53.440;10.390;2023-02-11T04:59:26;28.52;;;15.32;;
77324;SDS011;66387;53.440;10.390;2023-02-11T05:01:52;30.38;;;17.02;;
77324;SDS011;66387;53.440;10.390;2023-02-11T05:04:17;33.35;;;17.10;;
77324;SDS011;66387;53.440;10.390;2023-02-11T05:06:42;28.48;;;16.10;;
77324;SDS011;66387;53.440;10.390;2023-02-11T05:09:09;27.80;;;14.52;;
77324;SDS011;66387;53.440;10.390;2023-02-11T05:11:35;28.00;;;16.30;;
77324;SDS011;66387;53.440;10.390;2023-02-11T05:14:03;24.05;;;15.35;;
77324;SDS011;66387;53.440;10.390;2023-02-11T05:16:29;24.83;;;14.15;;
77324;SDS011;66387;53.440;10.390;2023-02-11T05:18:54;28.93;;;15.10;;
77324;SDS011;66387;53.440;10.390;2023-02-11T05:21:19;32.33;;;15.25;;
77324;SDS011;66387;53.440;10.390;2023-02-11T05:23:45;26.83;;;13.75;;
77324;SDS011;66387;53.440;10.390;2023-02-11T05:26:11;23.95;;;14.32;;
77324;SDS011;66387;53.440;10.390;2023-02-11T05:28:37;26.10;;;14.48;;
77324;SDS011;66387;53.440;10.390;2023-02-11T05:31:03;26.40;;;13.43;;
77324;SDS011;66387;53.440;10.390;2023-02-11T05:33:29;27.63;;;16.35;;
77324;SDS011;66387;53.440;10.390;2023-02-11T05:35:58;26.77;;;12.75;;
77324;SDS011;66387;53.440;10.390;2023-02-11T05:38:24;28.20;;;14.32;;
77324;SDS011;66387;53.440;10.390;2023-02-11T05:40:49;28.13;;;14.20;;
77324;SDS011;66387;53.440;10.390;2023-02-11T05:43:15;25.40;;;12.77;;
77324;SDS011;66387;53.440;10.390;2023-02-11T05:45:40;25.70;;;16.17;;
77324;SDS011;66387;53.440;10.390;2023-02-11T05:48:05;32.57;;;14.63;;
77324;SDS011;66387;53.440;10.390;2023-02-11T05:50:30;26.50;;;15.17;;
77324;SDS011;66387;53.440;10.390;2023-02-11T05:52:56;26.95;;;14.75;;
77324;SDS011;66387;53.440;10.390;2023-02-11T05:55:21;28.50;;;15.80;;
77324;SDS011;66387;53.440;10.390;2023-02-11T05:57:46;29.17;;;13.57;;
77324;SDS011;66387;53.440;10.390;2023-02-11T06:00:12;29.45;;;14.18;;
77324;SDS011;66387;53.440;10.390;2023-02-11T06:02:38;24.83;;;12.35;;
77324;SDS011;66387;53.440;10.390;2023-02-11T06:05:04;28.45;;;13.50;;
77324;SDS011;66387;53.440;10.390;2023-02-11T06:07:29;23.85;;;13.60;;
77324;SDS011;66387;53.440;10.390;2023-02-11T06:09:54;25.40;;;12.33;;
77324;SDS011;66387;53.440;10.390;2023-02-11T06:12:20;22.90;;;12.45;;
77324;SDS011;66387;53.440;10.390;2023-02-11T06:14:45;24.03;;;13.60;;
77324;SDS011;66387;53.440;10.390;2023-02-11T06:17:10;23.93;;;12.10;;
77324;SDS011;66387;53.440;10.390;2023-02-11T06:19:35;25.47;;;12.37;;
77324;SDS011;66387;53.440;10.390;2023-02-11T06:22:01;22.30;;;12.30;;
77324;SDS011;66387;53.440;10.390;2023-02-11T06:24:26;25.10;;;13.20;;
77324;SDS011;66387;53.440;10.390;2023-02-11T06:26:51;27.65;;;14.18;;
77324;SDS011;66387;53.440;10.390;2023-02-11T06:29:17;24.57;;;10.70;;
77324;SDS011;66387;53.440;10.390;2023-02-11T06:31:42;20.70;;;12.77;;
77324;SDS011;66387;53.440;10.390;2023-02-11T06:34:07;22.23;;;12.73;;
77324;SDS011;66387;53.440;10.390;2023-02-11T06:36:34;19.98;;;10.75;;
77324;SDS011;66387;53.440;10.390;2023-02-11T06:39:02;21.13;;;11.68;;
77324;SDS011;66387;53.440;10.390;2023-02-11T06:41:27;16.75;;;10.38;;
77324;SDS011;66387;53.440;10.390;2023-02-11T06:43:52;19.17;;;10.93;;
77324;SDS011;66387;53.440;10.390;2023-02-11T06:46:18;20.63;;;10.85;;
77324;SDS011;66387;53.440;10.390;2023-02-11T06:48:43;19.17;;;11.18;;
77324;SDS011;66387;53.440;10.390;2023-02-11T06:51:09;18.93;;;11.07;;
77324;SDS011;66387;53.440;10.390;2023-02-11T06:53:37;22.35;;;12.18;;
77324;SDS011;66387;53.440;10.390;2023-02-11T06:56:04;21.00;;;12.77;;
77324;SDS011;66387;53.440;10.390;2023-02-11T06:58:31;25.50;;;14.45;;
77324;SDS011;66387;53.440;10.390;2023-02-11T07:00:57;19.38;;;11.88;;
77324;SDS011;66387;53.440;10.390;2023-02-11T07:03:23;15.40;;;9.60;;
77324;SDS011;66387;53.440;10.390;2023-02-11T07:05:48;26.08;;;11.88;;
77324;SDS011;66387;53.440;10.390;2023-02-11T07:08:13;17.17;;;10.90;;
77324;SDS011;66387;53.440;10.390;2023-02-11T07:10:39;19.83;;;11.82;;
77324;SDS011;66387;53.440;10.390;2023-02-11T07:13:04;22.55;;;11.95;;
77324;SDS011;66387;53.440;10.390;2023-02-11T07:15:29;18.80;;;11.83;;
77324;SDS011;66387;53.440;10.390;2023-02-11T07:17:55;17.55;;;11.13;;
77324;SDS011;66387;53.440;10.390;2023-02-11T07:20:21;14.63;;;9.18;;
77324;SDS011;66387;53.440;10.390;2023-02-11T07:22:46;13.20;;;8.43;;
77324;SDS011;66387;53.440;10.390;2023-02-11T07:25:12;18.23;;;11.70;;
77324;SDS011;66387;53.440;10.390;2023-02-11T07:27:37;14.73;;;8.13;;
77324;SDS011;66387;53.440;10.390;2023-02-11T07:30:02;25.43;;;10.50;;
77324;SDS011;66387;53.440;10.390;2023-02-11T07:32:28;13.23;;;9.57;;
77324;SDS011;66387;53.440;10.390;2023-02-11T07:34:53;26.07;;;12.57;;
77324;SDS011;66387;53.440;10.390;2023-02-11T07:37:19;23.10;;;11.82;;
77324;SDS011;66387;53.440;10.390;2023-02-11T07:39:44;17.00;;;9.80;;
77324;SDS011;66387;53.440;10.390;2023-02-11T07:42:09;22.33;;;10.50;;
77324;SDS011;66387;53.440;10.390;2023-02-11T07:44:34;21.13;;;12.32;;
77324;SDS011;66387;53.440;10.390;2023-02-11T07:47:00;20.10;;;10.32;;
77324;SDS011;66387;53.440;10.390;2023-02-11T07:49:26;20.15;;;10.52;;
77324;SDS011;66387;53.440;10.390;2023-02-11T07:51:52;21.30;;;11.43;;
77324;SDS011;66387;53.440;10.390;2023-02-11T07:54:18;21.48;;;12.18;;
77324;SDS011;66387;53.440;10.390;2023-02-11T07:56:43;23.50;;;13.47;;
77324;SDS011;66387;53.440;10.390;2023-02-11T07:59:09;21.57;;;12.47;;
77324;SDS011;66387;53.440;10.390;2023-02-11T08:01:34;18.92;;;11.25;;
77324;SDS011;66387;53.440;10.390;2023-02-11T08:04:00;25.70;;;11.17;;
77324;SDS011;66387;53.440;10.390;2023-02-11T08:06:27;22.98;;;12.52;;
77324;SDS011;66387;53.440;10.390;2023-02-11T08:08:54;21.77;;;11.25;;
77324;SDS011;66387;53.440;10.390;2023-02-11T08:11:22;21.58;;;12.45;;
77324;SDS011;66387;53.440;10.390;2023-02-11T08:13:48;21.50;;;11.15;;
77324;SDS011;66387;53.440;10.390;2023-02-11T08:16:18;28.05;;;13.05;;
77324;SDS011;66387;53.440;10.390;2023-02-11T08:18:55;28.10;;;13.05;;
77324;SDS011;66387;53.440;10.390;2023-02-11T08:21:22;24.33;;;12.23;;
77324;SDS011;66387;53.440;10.390;2023-02-11T08:23:48;19.88;;;10.80;;
77324;SDS011;66387;53.440;10.390;2023-02-11T08:26:15;20.98;;;11.48;;
77324;SDS011;66387;53.440;10.390;2023-02-11T08:28:43;19.77;;;12.38;;
77324;SDS011;66387;53.440;10.390;2023-02-11T08:31:11;18.92;;;10.57;;
77324;SDS011;66387;53.440;10.390;2023-02-11T08:33:37;24.52;;;12.35;;
77324;SDS011;66387;53.440;10.390;2023-02-11T08:36:12;18.92;;;11.57;;
77324;SDS011;66387;53.440;10.390;2023-02-11T08:38:39;19.02;;;10.82;;
77324;SDS011;66387;53.440;10.390;2023-02-11T08:41:05;23.58;;;11.30;;
77324;SDS011;66387;53.440;10.390;2023-02-11T08:43:31;22.75;;;10.07;;
77324;SDS011;66387;53.440;10.390;2023-02-11T08:45:57;23.73;;;12.10;;
77324;SDS011;66387;53.440;10.390;2023-02-11T08:48:23;15.15;;;9.80;;
77324;SDS011;66387;53.440;10.390;2023-02-11T08:50:48;21.73;;;12.13;;
77324;SDS011;66387;53.440;10.390;2023-02-11T08:53:13;19.83;;;10.80;;
77324;SDS011;66387;53.440;10.390;2023-02-11T08:55:38;22.70;;;11.47;;
77324;SDS011;66387;53.440;10.390;2023-02-11T08:58:04;18.63;;;10.97;;
77324;SDS011;66387;53.440;10.390;2023-02-11T09:00:29;22.37;;;12.47;;
77324;SDS011;66387;53.440;10.390;2023-02-11T09:02:54;18.67;;;10.50;;
77324;SDS011;66387;53.440;10.390;2023-02-11T09:05:20;21.43;;;12.03;;
77324;SDS011;66387;53.440;10.390;2023-02-11T09:07:46;25.70;;;11.40;;
77324;SDS011;66387;53.440;10.390;2023-02-11T09:10:12;20.23;;;11.57;;
77324;SDS011;66387;53.440;10.390;2023-02-11T09:12:37;28.83;;;14.53;;
77324;SDS011;66387;53.440;10.390;2023-02-11T09:15:02;20.07;;;12.60;;
77324;SDS011;66387;53.440;10.390;2023-02-11T09:17:27;21.83;;;12.07;;
77324;SDS011;66387;53.440;10.390;2023-02-11T09:19:53;23.87;;;13.83;;
77324;SDS011;66387;53.440;10.390;2023-02-11T09:22:18;17.97;;;9.70;;
77324;SDS011;66387;53.440;10.390;2023-02-11T09:24:43;27.83;;;13.47;;
77324;SDS011;66387;53.440;10.390;2023-02-11T09:27:09;21.80;;;13.30;;
77324;SDS011;66387;53.440;10.390;2023-02-11T09:29:34;25.23;;;14.57;;
77324;SDS011;66387;53.440;10.390;2023-02-11T09:31:59;18.37;;;12.87;;
77324;SDS011;66387;53.440;10.390;2023-02-11T09:34:25;15.80;;;9.63;;
77324;SDS011;66387;53.440;10.390;2023-02-11T09:36:50;19.10;;;13.55;;
77324;SDS011;66387;53.440;10.390;2023-02-11T09:39:16;18.70;;;12.40;;
77324;SDS011;66387;53.440;10.390;2023-02-11T09:44:37;20.92;;;12.52;;
77324;SDS011;66387;53.440;10.390;2023-02-11T09:50:00;19.65;;;12.07;;
77324;SDS011;66387;53.440;10.390;2023-02-11T09:55:23;23.42;;;13.73;;
77324;SDS011;66387;53.440;10.390;2023-02-11T09:57:54;22.27;;;12.50;;
77324;SDS011;66387;53.440;10.390;2023-02-11T10:00:26;21.60;;;12.63;;
77324;SDS011;66387;53.440;10.390;2023-02-11T10:03:13;25.08;;;13.68;;
77324;SDS011;66387;53.440;10.390;2023-02-11T10:08:40;20.33;;;12.80;;
77324;SDS011;66387;53.440;10.390;2023-02-11T10:11:39;22.38;;;10.77;;
77324;SDS011;66387;53.440;10.390;2023-02-11T10:16:59;18.90;;;11.60;;
77324;SDS011;66387;53.440;10.390;2023-02-11T10:19:34;22.20;;;14.20;;
77324;SDS011;66387;53.440;10.390;2023-02-11T10:22:19;26.30;;;13.88;;
77324;SDS011;66387;53.440;10.390;2023-02-11T10:24:55;20.35;;;12.75;;
77324;SDS011;66387;53.440;10.390;2023-02-11T10:27:26;24.90;;;13.50;;
77324;SDS011;66387;53.440;10.390;2023-02-11T10:29:57;21.23;;;12.98;;
77324;SDS011;66387;53.440;10.390;2023-02-11T10:32:31;20.85;;;11.60;;
77324;SDS011;66387;53.440;10.390;2023-02-11T10:35:08;24.17;;;12.43;;
77324;SDS011;66387;53.440;10.390;2023-02-11T10:37:39;18.02;;;8.93;;
77324;SDS011;66387;53.440;10.390;2023-02-11T10:40:05;19.13;;;10.32;;
77324;SDS011;66387;53.440;10.390;2023-02-11T10:42:37;23.23;;;12.60;;
77324;SDS011;66387;53.440;10.390;2023-02-11T10:45:04;17.90;;;11.77;;
77324;SDS011;66387;53.440;10.390;2023-02-11T10:47:33;18.63;;;11.80;;
77324;SDS011;66387;53.440;10.390;2023-02-11T10:50:11;18.85;;;11.13;;
77324;SDS011;66387;53.440;10.390;2023-02-11T10:52:43;18.60;;;10.98;;
77324;SDS011;66387;53.440;10.390;2023-02-11T10:57:39;22.90;;;12.63;;
77324;SDS011;66387;53.440;10.390;2023-02-11T11:03:00;20.38;;;10.98;;
77324;SDS011;66387;53.440;10.390;2023-02-11T11:05:31;25.05;;;12.63;;
77324;SDS011;66387;53.440;10.390;2023-02-11T11:07:59;25.73;;;12.45;;
77324;SDS011;66387;53.440;10.390;2023-02-11T11:13:18;20.65;;;11.88;;
77324;SDS011;66387;53.440;10.390;2023-02-11T11:15:55;24.25;;;11.70;;
77324;SDS011;66387;53.440;10.390;2023-02-11T11:21:44;21.63;;;12.00;;
77324;SDS011;66387;53.440;10.390;2023-02-11T11:24:27;22.75;;;11.93;;
77324;SDS011;66387;53.440;10.390;2023-02-11T11:26:58;18.63;;;11.25;;
77324;SDS011;66387;53.440;10.390;2023-02-11T11:32:04;17.92;;;11.50;;
77324;SDS011;66387;53.440;10.390;2023-02-11T11:34:41;20.13;;;11.57;;
77324;SDS011;66387;53.440;10.390;2023-02-11T11:37:16;21.95;;;11.75;;
77324;SDS011;66387;53.440;10.390;2023-02-11T11:45:37;21.10;;;9.32;;
77324;SDS011;66387;53.440;10.390;2023-02-11T11:50:47;16.40;;;8.98;;
77324;SDS011;66387;53.440;10.390;2023-02-11T11:53:23;17.70;;;10.25;;
77324;SDS011;66387;53.440;10.390;2023-02-11T11:56:02;16.42;;;7.93;;
77324;SDS011;66387;53.440;10.390;2023-02-11T11:58:33;13.10;;;6.95;;
77324;SDS011;66387;53.440;10.390;2023-02-11T12:01:13;15.60;;;7.35;;
77324;SDS011;66387;53.440;10.390;2023-02-11T12:06:39;16.17;;;10.02;;
77324;SDS011;66387;53.440;10.390;2023-02-11T12:16:56;15.50;;;9.18;;
77324;SDS011;66387;53.440;10.390;2023-02-11T12:25:40;18.67;;;9.00;;
77324;SDS011;66387;53.440;10.390;2023-02-11T12:30:52;16.73;;;8.25;;
77324;SDS011;66387;53.440;10.390;2023-02-11T12:36:30;15.07;;;9.05;;
77324;SDS011;66387;53.440;10.390;2023-02-11T12:39:25;18.38;;;9.57;;
77324;SDS011;66387;53.440;10.390;2023-02-11T12:45:40;21.95;;;11.60;;
77324;SDS011;66387;53.440;10.390;2023-02-11T12:51:18;18.73;;;11.00;;
77324;SDS011;66387;53.440;10.390;2023-02-11T12:56:36;16.85;;;9.18;;
77324;SDS011;66387;53.440;10.390;2023-02-11T12:59:12;18.58;;;12.23;;
77324;SDS011;66387;53.440;10.390;2023-02-11T13:01:44;13.13;;;8.98;;
77324;SDS011;66387;53.440;10.390;2023-02-11T13:07:01;15.10;;;8.40;;
77324;SDS011;66387;53.440;10.390;2023-02-11T13:09:35;15.38;;;9.90;;
77324;SDS011;66387;53.440;10.390;2023-02-11T13:12:08;20.75;;;10.65;;
77324;SDS011;66387;53.440;10.390;2023-02-11T13:14:55;11.88;;;7.85;;
77324;SDS011;66387;53.440;10.390;2023-02-11T13:18:09;14.57;;;8.88;;
77324;SDS011;66387;53.440;10.390;2023-02-11T13:20:34;15.57;;;9.32;;
77324;SDS011;66387;53.440;10.390;2023-02-11T13:28:24;12.05;;;6.78;;
77324;SDS011;66387;53.440;10.390;2023-02-11T13:33:34;11.07;;;6.97;;
77324;SDS011;66387;53.440;10.390;2023-02-11T13:38:26;11.57;;;6.57;;
77324;SDS011;66387;53.440;10.390;2023-02-11T13:43:57;10.27;;;6.47;;
77324;SDS011;66387;53.440;10.390;2023-02-11T13:46:47;10.40;;;6.70;;
77324;SDS011;66387;53.440;10.390;2023-02-11T13:52:00;11.02;;;5.75;;
77324;SDS011;66387;53.440;10.390;2023-02-11T13:54:36;11.32;;;6.30;;
77324;SDS011;66387;53.440;10.390;2023-02-11T13:59:44;9.07;;;5.85;;
77324;SDS011;66387;53.440;10.390;2023-02-11T14:02:22;11.35;;;6.63;;
77324;SDS011;66387;53.440;10.390;2023-02-11T14:05:26;11.32;;;6.10;;
77324;SDS011;66387;53.440;10.390;2023-02-11T14:08:14;11.88;;;7.78;;
77324;SDS011;66387;53.440;10.390;2023-02-11T14:11:08;20.63;;;8.80;;
77324;SDS011;66387;53.440;10.390;2023-02-11T14:16:20;15.17;;;9.00;;
77324;SDS011;66387;53.440;10.390;2023-02-11T14:21:19;16.70;;;10.57;;
77324;SDS011;66387;53.440;10.390;2023-02-11T14:23:47;21.00;;;10.02;;
77324;SDS011;66387;53.440;10.390;2023-02-11T14:28:58;19.67;;;12.30;;
77324;SDS011;66387;53.440;10.390;2023-02-11T14:31:28;16.00;;;10.73;;
77324;SDS011;66387;53.440;10.390;2023-02-11T14:34:30;16.00;;;9.45;;
77324;SDS011;66387;53.440;10.390;2023-02-11T14:37:12;17.25;;;9.13;;
77324;SDS011;66387;53.440;10.390;2023-02-11T14:39:52;15.50;;;8.32;;
77324;SDS011;66387;53.440;10.390;2023-02-11T14:42:37;15.77;;;8.32;;
77324;SDS011;66387;53.440;10.390;2023-02-11T14:45:04;15.33;;;9.00;;
77324;SDS011;66387;53.440;10.390;2023-02-11T14:47:39;14.88;;;10.15;;
77324;SDS011;66387;53.440;10.390;2023-02-11T14:50:11;14.00;;;7.82;;
77324;SDS011;66387;53.440;10.390;2023-02-11T14:52:41;12.82;;;8.73;;
77324;SDS011;66387;53.440;10.390;2023-02-11T14:57:39;20.05;;;13.05;;
77324;SDS011;66387;53.440;10.390;2023-02-11T15:00:26;25.73;;;17.05;;
77324;SDS011;66387;53.440;10.390;2023-02-11T15:02:51;21.48;;;11.13;;
77324;SDS011;66387;53.440;10.390;2023-02-11T15:05:21;21.52;;;11.88;;
77324;SDS011;66387;53.440;10.390;2023-02-11T15:07:54;25.40;;;16.83;;
77324;SDS011;66387;53.440;10.390;2023-02-11T15:10:27;31.33;;;20.02;;
77324;SDS011;66387;53.440;10.390;2023-02-11T15:12:55;17.27;;;12.02;;
77324;SDS011;66387;53.440;10.390;2023-02-11T15:15:22;27.55;;;18.40;;
77324;SDS011;66387;53.440;10.390;2023-02-11T15:17:47;27.38;;;17.90;;
77324;SDS011;66387;53.440;10.390;2023-02-11T15:20:23;24.05;;;12.05;;
77324;SDS011;66387;53.440;10.390;2023-02-11T15:22:53;25.95;;;17.52;;
77324;SDS011;66387;53.440;10.390;2023-02-11T15:25:21;24.08;;;15.32;;
77324;SDS011;66387;53.440;10.390;2023-02-11T15:27:49;20.60;;;11.90;;
77324;SDS011;66387;53.440;10.390;2023-02-11T15:30:17;26.55;;;14.45;;
77324;SDS011;66387;53.440;10.390;2023-02-11T15:32:49;20.48;;;11.77;;
77324;SDS011;66387;53.440;10.390;2023-02-11T15:35:24;21.10;;;14.00;;
77324;SDS011;66387;53.440;10.390;2023-02-11T15:37:52;20.65;;;12.73;;
77324;SDS011;66387;53.440;10.390;2023-02-11T15:40:20;18.15;;;12.07;;
77324;SDS011;66387;53.440;10.390;2023-02-11T15:42:55;19.63;;;10.68;;
77324;SDS011;66387;53.440;10.390;2023-02-11T15:45:25;20.50;;;13.15;;
77324;SDS011;66387;53.440;10.390;2023-02-11T15:47:56;20.17;;;11.95;;
77324;SDS011;66387;53.440;10.390;2023-02-11T15:50:28;18.80;;;10.60;;
77324;SDS011;66387;53.440;10.390;2023-02-11T15:52:55;23.50;;;13.82;;
77324;SDS011;66387;53.440;10.390;2023-02-11T15:55:23;21.33;;;12.15;;
77324;SDS011;66387;53.440;10.390;2023-02-11T15:57:52;12.15;;;7.82;;
77324;SDS011;66387;53.440;10.390;2023-02-11T16:00:20;8.30;;;5.20;;
77324;SDS011;66387;53.440;10.390;2023-02-11T16:02:48;9.38;;;5.45;;
77324;SDS011;66387;53.440;10.390;2023-02-11T16:07:57;11.07;;;5.00;;
77324;SDS011;66387;53.440;10.390;2023-02-11T16:17:58;8.57;;;5.20;;
77324;SDS011;66387;53.440;10.390;2023-02-11T16:22:51;13.38;;;5.85;;
77324;SDS011;66387;53.440;10.390;2023-02-11T16:25:17;10.30;;;6.60;;
77324;SDS011;66387;53.440;10.390;2023-02-11T16:27:46;14.77;;;7.15;;
77324;SDS011;66387;53.440;10.390;2023-02-11T16:30:28;15.38;;;7.53;;
77324;SDS011;66387;53.440;10.390;2023-02-11T16:32:57;12.98;;;6.18;;
77324;SDS011;66387;53.440;10.390;2023-02-11T16:35:22;12.60;;;6.20;;
77324;SDS011;66387;53.440;10.390;2023-02-11T16:37:48;10.13;;;7.40;;
77324;SDS011;66387;53.440;10.390;2023-02-11T16:40:13;12.53;;;5.90;;
77324;SDS011;66387;53.440;10.390;2023-02-11T16:42:38;11.18;;;5.88;;
77324;SDS011;66387;53.440;10.390;2023-02-11T16:45:04;11.77;;;7.05;;
77324;SDS011;66387;53.440;10.390;2023-02-11T16:47:29;11.27;;;7.13;;
77324;SDS011;66387;53.440;10.390;2023-02-11T16:49:55;12.10;;;5.30;;
77324;SDS011;66387;53.440;10.390;2023-02-11T16:52:22;9.52;;;5.55;;
77324;SDS011;66387;53.440;10.390;2023-02-11T16:54:48;11.60;;;8.10;;
77324;SDS011;66387;53.440;10.390;2023-02-11T16:57:18;16.15;;;7.88;;
77324;SDS011;66387;53.440;10.390;2023-02-11T16:59:45;20.95;;;10.18;;